createdAt,value
2017-09-25T00:00:27.181Z,18.70
2017-09-25T00:02:54.813Z,18.63
2017-09-25T00:05:22.444Z,19.20
2017-09-25T00:07:50.816Z,19.10
2017-09-25T00:10:19.208Z,19.00
2017-09-25T00:12:46.799Z,20.20
2017-09-25T00:15:14.385Z,20.97
2017-09-25T00:17:41.965Z,20.37
2017-09-25T00:20:10.903Z,20.37
2017-09-25T00:22:38.568Z,19.70
2017-09-25T00:25:06.141Z,20.57
2017-09-25T00:27:33.756Z,19.00
2017-09-25T00:30:01.380Z,20.00
2017-09-25T00:32:29.012Z,20.80
2017-09-25T00:34:56.598Z,19.90
2017-09-25T00:37:24.233Z,20.13
2017-09-25T00:39:51.895Z,19.30
2017-09-25T00:42:19.462Z,20.67
2017-09-25T00:44:47.122Z,19.13
2017-09-25T00:47:14.741Z,19.77
2017-09-25T00:49:43.133Z,18.57
2017-09-25T00:52:10.710Z,17.80
2017-09-25T00:54:38.313Z,19.97
2017-09-25T00:57:05.934Z,22.60
2017-09-25T00:59:33.553Z,19.83
2017-09-25T01:02:14.372Z,20.47
2017-09-25T01:04:54.041Z,21.60
2017-09-25T01:07:21.705Z,19.10
2017-09-25T01:09:49.350Z,23.07
2017-09-25T01:12:16.991Z,20.30
2017-09-25T01:14:44.635Z,22.40
2017-09-25T01:17:12.230Z,21.27
2017-09-25T01:19:39.875Z,21.17
2017-09-25T01:22:07.480Z,22.97
2017-09-25T01:24:35.164Z,21.77
2017-09-25T01:27:03.535Z,20.70
2017-09-25T01:29:32.894Z,22.50
2017-09-25T01:32:00.564Z,22.33
2017-09-25T01:34:28.227Z,22.10
2017-09-25T01:36:55.814Z,22.50
2017-09-25T01:39:23.416Z,25.37
2017-09-25T01:41:51.002Z,26.00
2017-09-25T01:44:19.579Z,25.67
2017-09-25T01:46:47.173Z,24.80
2017-09-25T01:49:14.746Z,25.27
2017-09-25T01:51:43.118Z,24.93
2017-09-25T01:54:11.557Z,27.53
2017-09-25T01:56:39.151Z,24.90
2017-09-25T01:59:06.733Z,24.67
2017-09-25T02:01:34.354Z,24.90
2017-09-25T02:04:02.798Z,25.47
2017-09-25T02:06:30.395Z,24.30
2017-09-25T02:08:58.042Z,23.23
2017-09-25T02:11:25.669Z,26.77
2017-09-25T02:13:53.292Z,26.63
2017-09-25T02:16:20.909Z,27.57
2017-09-25T02:18:48.497Z,25.83
2017-09-25T02:21:16.153Z,26.53
2017-09-25T02:23:43.826Z,26.73
2017-09-25T02:26:11.426Z,28.53
2017-09-25T02:28:39.038Z,28.10
2017-09-25T02:31:06.655Z,28.37
2017-09-25T02:33:34.278Z,28.27
2017-09-25T02:36:01.928Z,28.10
2017-09-25T02:38:29.542Z,28.60
2017-09-25T02:40:57.166Z,25.80
2017-09-25T02:43:24.746Z,29.57
2017-09-25T02:45:53.109Z,33.23
2017-09-25T02:48:20.714Z,31.47
2017-09-25T02:50:49.297Z,30.63
2017-09-25T02:53:16.899Z,30.60
2017-09-25T02:55:44.536Z,29.67
2017-09-25T02:58:12.130Z,30.67
2017-09-25T03:00:39.715Z,28.87
2017-09-25T03:03:08.087Z,30.67
2017-09-25T03:05:36.445Z,28.90
2017-09-25T03:08:04.073Z,27.40
2017-09-25T03:10:31.695Z,30.00
2017-09-25T03:12:59.344Z,28.10
2017-09-25T03:15:27.741Z,27.63
2017-09-25T03:17:55.379Z,30.03
2017-09-25T03:20:23.806Z,28.47
2017-09-25T03:22:51.399Z,26.20
2017-09-25T03:25:19.001Z,28.30
2017-09-25T03:27:47.373Z,26.87
2017-09-25T03:30:15.740Z,26.80
2017-09-25T03:32:44.138Z,28.90
2017-09-25T03:35:11.755Z,26.70
2017-09-25T03:37:39.382Z,26.90
2017-09-25T03:40:07.017Z,30.20
2017-09-25T03:42:35.452Z,27.83
2017-09-25T03:45:03.067Z,26.60
2017-09-25T03:47:30.685Z,29.07
2017-09-25T03:49:58.317Z,28.25
2017-09-25T03:52:25.935Z,29.20
2017-09-25T03:54:55.231Z,29.00
2017-09-25T03:57:23.853Z,25.70
2017-09-25T03:59:51.454Z,28.00
2017-09-25T04:02:19.088Z,28.00
2017-09-25T04:04:46.684Z,25.37
2017-09-25T04:07:14.320Z,28.03
2017-09-25T04:09:41.937Z,27.40
2017-09-25T04:12:09.613Z,26.70
2017-09-25T04:14:37.313Z,29.13
2017-09-25T04:17:05.002Z,27.87
2017-09-25T04:19:32.596Z,28.47
2017-09-25T04:22:00.197Z,28.97
2017-09-25T04:24:27.831Z,27.40
2017-09-25T04:26:55.452Z,26.03
2017-09-25T04:29:23.790Z,27.57
2017-09-25T04:31:51.425Z,25.90
2017-09-25T04:34:19.018Z,28.00
2017-09-25T04:36:46.700Z,28.30
2017-09-25T04:39:14.325Z,29.30
2017-09-25T04:41:41.941Z,28.40
2017-09-25T04:44:10.338Z,28.20
2017-09-25T04:46:37.960Z,28.93
2017-09-25T04:49:05.521Z,29.67
2017-09-25T04:51:33.135Z,28.00
2017-09-25T04:54:01.809Z,28.20
2017-09-25T04:56:29.395Z,27.50
2017-09-25T04:58:57.037Z,27.83
2017-09-25T05:01:24.652Z,28.50
2017-09-25T05:03:52.241Z,27.70
2017-09-25T05:06:20.337Z,27.30
2017-09-25T05:08:48.003Z,27.40
2017-09-25T05:11:15.617Z,26.87
2017-09-25T05:13:43.332Z,26.83
2017-09-25T05:16:10.938Z,28.00
2017-09-25T05:18:38.561Z,26.23
2017-09-25T05:21:08.054Z,26.17
2017-09-25T05:23:35.687Z,29.27
2017-09-25T05:26:03.302Z,28.20
2017-09-25T05:28:30.947Z,27.90
2017-09-25T05:30:58.547Z,29.07
2017-09-25T05:33:26.173Z,27.67
2017-09-25T05:35:53.783Z,27.77
2017-09-25T05:38:21.461Z,28.17
2017-09-25T05:40:49.314Z,29.17
2017-09-25T05:43:16.956Z,29.07
2017-09-25T05:45:44.618Z,30.17
2017-09-25T05:48:12.387Z,32.20
2017-09-25T05:50:40.024Z,29.03
2017-09-25T05:53:07.724Z,31.10
2017-09-25T05:55:35.438Z,30.23
2017-09-25T05:58:03.776Z,30.00
2017-09-25T06:00:32.126Z,33.97
2017-09-25T06:02:59.760Z,27.60
2017-09-25T06:05:27.422Z,30.23
2017-09-25T06:07:55.045Z,27.50
2017-09-25T06:10:23.293Z,29.57
2017-09-25T06:12:51.728Z,29.30
2017-09-25T06:15:19.331Z,28.60
2017-09-25T06:17:46.945Z,28.30
2017-09-25T06:20:14.538Z,29.00
2017-09-25T06:22:42.144Z,29.60
2017-09-25T06:25:09.743Z,29.43
2017-09-25T06:27:37.668Z,27.83
2017-09-25T06:30:05.274Z,27.47
2017-09-25T06:32:32.856Z,29.80
2017-09-25T06:35:00.533Z,26.50
2017-09-25T06:37:28.894Z,28.33
2017-09-25T06:39:56.471Z,28.77
2017-09-25T06:42:24.876Z,30.07
2017-09-25T06:44:53.329Z,28.43
2017-09-25T06:47:21.810Z,27.93
2017-09-25T06:49:50.221Z,27.17
2017-09-25T06:52:17.858Z,29.43
2017-09-25T06:54:46.237Z,28.43
2017-09-25T06:57:14.615Z,28.10
2017-09-25T06:59:42.201Z,29.20
2017-09-25T07:02:09.872Z,29.80
2017-09-25T07:04:37.556Z,28.10
2017-09-25T07:07:05.142Z,27.00
2017-09-25T07:09:33.621Z,26.63
2017-09-25T07:12:01.227Z,26.17
2017-09-25T07:14:28.966Z,28.70
2017-09-25T07:16:57.588Z,29.30
2017-09-25T07:19:25.236Z,29.47
2017-09-25T07:21:52.874Z,28.07
2017-09-25T07:24:21.235Z,28.20
2017-09-25T07:26:49.598Z,27.90
2017-09-25T07:29:17.222Z,27.63
2017-09-25T07:31:44.879Z,27.20
2017-09-25T07:34:12.556Z,27.83
2017-09-25T07:36:40.735Z,28.83
2017-09-25T07:39:08.365Z,27.33
2017-09-25T07:41:35.946Z,28.97
2017-09-25T07:44:04.445Z,26.27
2017-09-25T07:46:32.067Z,26.80
2017-09-25T07:48:59.692Z,26.50
2017-09-25T07:51:27.267Z,25.40
2017-09-25T07:53:54.981Z,25.70
2017-09-25T07:56:22.587Z,26.93
2017-09-25T07:58:50.957Z,25.57
2017-09-25T08:01:18.626Z,26.07
2017-09-25T08:03:47.034Z,24.43
2017-09-25T08:06:14.676Z,24.77
2017-09-25T08:08:43.102Z,26.50
2017-09-25T08:11:10.710Z,24.40
2017-09-25T08:13:39.120Z,26.93
2017-09-25T08:16:06.724Z,24.83
2017-09-25T08:18:34.352Z,24.63
2017-09-25T08:21:01.985Z,24.57
2017-09-25T08:23:30.335Z,22.60
2017-09-25T08:25:57.958Z,22.50
2017-09-25T08:28:25.595Z,22.40
2017-09-25T08:30:53.199Z,24.50
2017-09-25T08:33:20.774Z,20.90
2017-09-25T08:35:48.392Z,21.67
2017-09-25T08:38:16.098Z,20.60
2017-09-25T08:40:43.695Z,22.80
2017-09-25T08:43:11.351Z,23.77
2017-09-25T08:45:38.929Z,23.03
2017-09-25T08:48:06.532Z,21.30
2017-09-25T08:50:34.173Z,19.70
2017-09-25T08:53:02.577Z,20.50
2017-09-25T08:55:30.219Z,20.10
2017-09-25T08:57:57.819Z,23.37
2017-09-25T09:00:25.471Z,23.53
2017-09-25T09:02:53.087Z,20.83
2017-09-25T09:05:20.681Z,21.37
2017-09-25T09:07:48.284Z,20.20
2017-09-25T09:10:16.637Z,17.30
2017-09-25T09:12:45.024Z,17.03
2017-09-25T09:15:12.600Z,17.80
2017-09-25T09:17:40.957Z,17.60
2017-09-25T09:20:08.538Z,18.60
2017-09-25T09:22:36.157Z,15.77
2017-09-25T09:25:03.772Z,17.10
2017-09-25T09:27:31.364Z,16.87
2017-09-25T09:29:58.988Z,15.70
2017-09-25T09:32:27.141Z,18.13
2017-09-25T09:34:55.588Z,14.30
2017-09-25T09:37:23.211Z,14.27
2017-09-25T09:39:50.808Z,15.43
2017-09-25T09:42:18.421Z,14.73
2017-09-25T09:44:46.802Z,14.90
2017-09-25T09:47:15.153Z,14.80
2017-09-25T09:49:42.706Z,14.00
2017-09-25T09:52:10.322Z,16.33
2017-09-25T09:54:37.988Z,14.27
2017-09-25T09:57:05.566Z,17.47
2017-09-25T09:59:33.176Z,17.40
2017-09-25T10:02:01.578Z,18.40
2017-09-25T10:04:29.201Z,17.57
2017-09-25T10:06:56.784Z,17.83
2017-09-25T10:09:24.403Z,19.47
2017-09-25T10:11:52.078Z,20.03
2017-09-25T10:14:19.648Z,17.40
2017-09-25T10:16:48.035Z,19.93
2017-09-25T10:19:16.374Z,20.67
2017-09-25T10:21:44.000Z,20.70
2017-09-25T10:24:11.586Z,23.73
2017-09-25T10:26:39.295Z,31.90
2017-09-25T10:29:07.644Z,20.50
2017-09-25T10:31:35.197Z,21.40
2017-09-25T10:34:02.792Z,22.33
2017-09-25T10:36:31.142Z,21.97
2017-09-25T10:38:58.751Z,20.00
2017-09-25T10:41:26.334Z,20.13
2017-09-25T10:43:53.960Z,20.57
2017-09-25T10:46:22.328Z,19.97
2017-09-25T10:48:49.874Z,20.87
2017-09-25T10:51:17.494Z,21.10
2017-09-25T10:53:45.074Z,19.83
2017-09-25T10:56:12.663Z,22.80
2017-09-25T10:58:40.267Z,23.57
2017-09-25T11:01:09.445Z,22.10
2017-09-25T11:03:37.810Z,27.73
2017-09-25T11:06:06.175Z,23.10
2017-09-25T11:08:33.872Z,20.83
2017-09-25T11:11:01.474Z,22.37
2017-09-25T11:13:29.060Z,24.87
2017-09-25T11:15:57.434Z,23.53
2017-09-25T11:18:25.054Z,24.30
2017-09-25T11:20:52.658Z,23.17
2017-09-25T11:23:20.264Z,23.90
2017-09-25T11:25:47.832Z,22.93
2017-09-25T11:28:15.397Z,21.90
2017-09-25T11:30:43.055Z,24.37
2017-09-25T11:33:10.669Z,22.73
2017-09-25T11:35:39.045Z,25.03
2017-09-25T11:38:06.631Z,25.70
2017-09-25T11:40:34.191Z,28.30
2017-09-25T11:43:01.796Z,24.67
2017-09-25T11:45:29.377Z,26.43
2017-09-25T11:47:57.011Z,26.97
2017-09-25T11:50:24.574Z,25.27
2017-09-25T11:52:52.169Z,30.50
2017-09-25T11:55:20.558Z,29.07
2017-09-25T11:57:48.149Z,30.27
2017-09-25T12:00:15.726Z,29.67
2017-09-25T12:02:43.339Z,28.50
2017-09-25T12:05:11.677Z,28.47
2017-09-25T12:07:39.294Z,30.40
2017-09-25T12:10:06.889Z,29.67
2017-09-25T12:12:35.295Z,29.90
2017-09-25T12:15:02.929Z,29.00
2017-09-25T12:17:30.594Z,28.40
2017-09-25T12:19:58.178Z,29.80
2017-09-25T12:22:26.092Z,27.77
2017-09-25T12:24:53.705Z,27.33
2017-09-25T12:27:21.284Z,25.00
2017-09-25T12:29:48.856Z,25.93
2017-09-25T12:32:17.142Z,25.30
2017-09-25T12:34:44.767Z,25.90
2017-09-25T12:37:12.455Z,27.40
2017-09-25T12:39:40.133Z,25.87
2017-09-25T12:42:07.712Z,26.40
2017-09-25T12:44:35.303Z,23.97
2017-09-25T12:47:02.986Z,24.97
2017-09-25T12:49:31.370Z,26.93
2017-09-25T12:51:59.751Z,25.07
2017-09-25T12:54:28.128Z,25.43
2017-09-25T12:56:56.483Z,27.30
2017-09-25T12:59:24.081Z,27.00
2017-09-25T13:01:52.463Z,24.07
2017-09-25T13:04:20.077Z,24.70
2017-09-25T13:06:47.695Z,27.13
2017-09-25T13:09:15.286Z,26.33
2017-09-25T13:11:43.001Z,26.80
2017-09-25T13:14:10.577Z,29.00
2017-09-25T13:16:38.153Z,28.53
2017-09-25T13:19:05.803Z,26.97
2017-09-25T13:21:33.461Z,27.10
2017-09-25T13:24:01.102Z,29.30
2017-09-25T13:26:28.813Z,28.40
2017-09-25T13:28:56.771Z,26.60
2017-09-25T13:31:24.741Z,27.77
2017-09-25T13:33:52.358Z,28.37
2017-09-25T13:36:20.708Z,32.03
2017-09-25T13:38:48.311Z,30.27
2017-09-25T13:41:15.908Z,28.27
2017-09-25T13:43:43.484Z,30.47
2017-09-25T13:46:11.131Z,27.60
2017-09-25T13:48:38.756Z,28.07
2017-09-25T13:51:06.556Z,29.13
2017-09-25T13:53:34.211Z,27.20
2017-09-25T13:56:01.770Z,27.37
2017-09-25T13:58:29.367Z,27.93
2017-09-25T14:03:30.624Z,28.87
2017-09-25T14:05:58.238Z,26.90
2017-09-25T14:08:25.893Z,27.70
2017-09-25T14:10:53.556Z,26.90
2017-09-25T14:13:21.247Z,27.33
2017-09-25T14:15:48.841Z,26.97
2017-09-25T14:18:16.456Z,27.37
2017-09-25T14:20:44.970Z,28.50
2017-09-25T14:23:13.347Z,28.63
2017-09-25T14:25:40.964Z,27.67
2017-09-25T14:28:08.566Z,27.40
2017-09-25T14:30:36.209Z,27.73
2017-09-25T14:33:03.860Z,26.90
2017-09-25T14:35:31.464Z,27.90
2017-09-25T14:37:59.121Z,26.37
2017-09-25T14:40:26.741Z,27.03
2017-09-25T14:42:55.023Z,26.67
2017-09-25T14:45:22.617Z,23.57
2017-09-25T14:47:50.250Z,25.33
2017-09-25T14:50:17.845Z,25.30
2017-09-25T14:52:45.422Z,25.40
2017-09-25T14:55:13.772Z,26.60
2017-09-25T14:57:41.459Z,26.00
2017-09-25T15:00:09.832Z,24.90
2017-09-25T15:02:37.454Z,27.30
2017-09-25T15:05:05.113Z,24.73
2017-09-25T15:07:32.815Z,24.50
2017-09-25T15:10:00.433Z,27.17
2017-09-25T15:12:28.065Z,26.47
2017-09-25T15:14:55.717Z,25.23
2017-09-25T15:17:23.310Z,26.50
2017-09-25T15:19:50.890Z,25.97
2017-09-25T15:22:18.494Z,24.20
2017-09-25T15:24:46.899Z,24.77
2017-09-25T15:27:14.500Z,25.80
2017-09-25T15:29:42.147Z,23.90
2017-09-25T15:32:10.893Z,24.27
2017-09-25T15:34:38.490Z,28.13
2017-09-25T15:37:06.181Z,26.93
2017-09-25T15:39:33.794Z,25.07
2017-09-25T15:42:01.386Z,27.27
2017-09-25T15:44:29.005Z,25.57
2017-09-25T15:46:56.733Z,26.33
2017-09-25T15:49:25.182Z,27.33
2017-09-25T15:51:52.815Z,26.47
2017-09-25T15:54:20.776Z,26.23
2017-09-25T15:56:48.416Z,27.03
2017-09-25T15:59:16.807Z,25.53
2017-09-25T16:01:45.161Z,27.27
2017-09-25T16:04:12.780Z,26.23
2017-09-25T16:06:40.394Z,26.87
2017-09-25T16:09:09.150Z,33.07
2017-09-25T16:11:36.785Z,28.17
2017-09-25T16:14:04.403Z,26.27
2017-09-25T16:16:33.045Z,35.37
2017-09-25T16:19:00.661Z,26.63
2017-09-25T16:21:28.283Z,42.93
2017-09-25T16:23:55.868Z,31.47
2017-09-25T16:26:23.519Z,29.73
2017-09-25T16:28:51.087Z,26.90
2017-09-25T16:31:18.732Z,29.10
2017-09-25T16:33:46.378Z,84.37
2017-09-25T16:36:14.019Z,27.70
2017-09-25T16:38:41.723Z,30.90
2017-09-25T16:41:10.108Z,26.40
2017-09-25T16:43:37.789Z,29.00
2017-09-25T16:46:06.194Z,27.80
2017-09-25T16:48:33.835Z,67.67
2017-09-25T16:51:02.227Z,34.40
2017-09-25T16:53:29.905Z,57.03
2017-09-25T16:55:57.499Z,58.63
2017-09-25T16:58:25.126Z,31.73
2017-09-25T17:00:52.719Z,32.80
2017-09-25T17:03:20.753Z,28.63
2017-09-25T17:05:48.398Z,32.27
2017-09-25T17:08:16.024Z,28.70
2017-09-25T17:10:43.627Z,28.40
2017-09-25T17:13:11.246Z,26.30
2017-09-25T17:15:38.848Z,27.70
2017-09-25T17:18:06.465Z,27.80
2017-09-25T17:20:34.061Z,28.00
2017-09-25T17:23:01.665Z,57.13
2017-09-25T17:25:29.240Z,31.93
2017-09-25T17:27:56.879Z,27.83
2017-09-25T17:30:24.489Z,26.90
2017-09-25T17:32:52.873Z,57.00
2017-09-25T17:35:20.464Z,60.47
2017-09-25T17:37:48.070Z,27.93
2017-09-25T17:40:15.673Z,30.40
2017-09-25T17:42:43.301Z,29.13
2017-09-25T17:45:10.883Z,40.33
2017-09-25T17:47:38.475Z,30.57
2017-09-25T17:50:06.069Z,29.30
2017-09-25T17:52:33.684Z,29.83
2017-09-25T17:55:01.309Z,31.00
2017-09-25T17:57:29.693Z,38.00
2017-09-25T17:59:58.063Z,30.50
2017-09-25T18:02:26.448Z,30.97
2017-09-25T18:04:54.791Z,29.50
2017-09-25T18:07:22.476Z,29.60
2017-09-25T18:09:50.652Z,30.03
2017-09-25T18:12:18.298Z,39.00
2017-09-25T18:14:45.911Z,32.20
2017-09-25T18:17:13.570Z,34.63
2017-09-25T18:19:41.226Z,32.50
2017-09-25T18:22:08.868Z,30.73
2017-09-25T18:24:37.246Z,35.50
2017-09-25T18:27:05.621Z,31.70
2017-09-25T18:29:33.338Z,34.37
2017-09-25T18:32:00.951Z,31.57
2017-09-25T18:34:29.327Z,29.70
2017-09-25T18:36:57.729Z,36.87
2017-09-25T18:39:25.398Z,31.77
2017-09-25T18:41:53.057Z,32.77
2017-09-25T18:44:20.665Z,29.73
2017-09-25T18:46:48.260Z,30.77
2017-09-25T18:49:17.244Z,30.17
2017-09-25T18:51:44.922Z,27.57
2017-09-25T18:54:13.275Z,28.33
2017-09-25T18:56:40.910Z,25.83
2017-09-25T18:59:08.520Z,26.40
2017-09-25T19:01:37.106Z,25.10
2017-09-25T19:04:05.459Z,24.00
2017-09-25T19:06:33.121Z,27.47
2017-09-25T19:09:00.741Z,23.60
2017-09-25T19:11:28.364Z,21.90
2017-09-25T19:13:56.716Z,21.80
2017-09-25T19:16:24.328Z,20.23
2017-09-25T19:18:51.955Z,20.07
2017-09-25T19:21:20.341Z,18.73
2017-09-25T19:23:48.744Z,19.40
2017-09-25T19:26:16.372Z,19.20
2017-09-25T19:28:44.004Z,21.77
2017-09-25T19:31:11.557Z,18.00
2017-09-25T19:33:39.158Z,17.07
2017-09-25T19:36:06.735Z,18.60
2017-09-25T19:38:34.368Z,18.40
2017-09-25T19:41:02.779Z,16.47
2017-09-25T19:43:30.582Z,16.63
2017-09-25T19:45:58.242Z,16.03
2017-09-25T19:48:28.225Z,16.53
2017-09-25T19:53:54.545Z,16.87
2017-09-25T19:56:22.203Z,16.43
2017-09-25T19:58:52.443Z,16.10
2017-09-25T20:01:20.062Z,15.23
2017-09-25T20:03:47.649Z,15.37
2017-09-25T20:06:15.241Z,14.57
2017-09-25T20:08:42.906Z,13.43
2017-09-25T20:11:10.527Z,15.27
2017-09-25T20:13:38.193Z,16.00
2017-09-25T20:16:11.538Z,16.47
2017-09-25T20:18:39.785Z,16.67
2017-09-25T20:21:08.130Z,16.60
2017-09-25T20:23:35.710Z,16.40
2017-09-25T20:26:04.046Z,17.10
2017-09-25T20:28:31.637Z,16.80
2017-09-25T20:30:59.264Z,17.10
2017-09-25T20:33:26.818Z,15.43
2017-09-25T20:35:54.462Z,18.43
2017-09-25T20:38:22.146Z,17.23
2017-09-25T20:40:52.458Z,16.73
2017-09-25T20:43:20.064Z,17.93
2017-09-25T20:45:47.685Z,17.07
2017-09-25T20:48:15.286Z,16.17
2017-09-25T20:50:43.689Z,17.47
2017-09-25T20:53:12.071Z,15.60
2017-09-25T20:55:39.711Z,18.67
2017-09-25T20:58:08.115Z,18.50
2017-09-25T21:00:35.772Z,19.17
2017-09-25T21:03:03.393Z,20.07
2017-09-25T21:05:31.035Z,19.57
2017-09-25T21:07:58.617Z,18.83
2017-09-25T21:10:26.273Z,20.50
2017-09-25T21:12:53.854Z,21.03
2017-09-25T21:15:21.428Z,20.60
2017-09-25T21:17:49.812Z,22.47
2017-09-25T21:20:18.175Z,23.07
2017-09-25T21:22:45.769Z,23.03
2017-09-25T21:25:13.694Z,22.00
2017-09-25T21:27:51.560Z,22.93
2017-09-25T21:30:19.149Z,23.70
2017-09-25T21:32:46.779Z,23.47
2017-09-25T21:35:14.384Z,22.90
2017-09-25T21:37:41.987Z,24.80
2017-09-25T21:40:09.594Z,23.40
2017-09-25T21:42:38.117Z,26.97
2017-09-25T21:45:06.465Z,25.03
2017-09-25T21:47:34.832Z,26.70
2017-09-25T21:50:02.435Z,28.53
2017-09-25T21:52:30.825Z,27.37
2017-09-25T21:54:58.428Z,27.40
2017-09-25T21:57:26.000Z,26.83
2017-09-25T21:59:53.621Z,29.00
2017-09-25T22:02:21.281Z,27.23
2017-09-25T22:04:48.869Z,27.67
2017-09-25T22:07:16.467Z,28.80
2017-09-25T22:09:44.072Z,28.57
2017-09-25T22:12:11.698Z,30.17
2017-09-25T22:14:39.302Z,30.30
2017-09-25T22:17:06.892Z,30.47
2017-09-25T22:19:34.486Z,29.20
2017-09-25T22:22:02.106Z,28.97
2017-09-25T22:24:30.518Z,29.60
2017-09-25T22:26:58.851Z,28.60
2017-09-25T22:29:26.434Z,31.17
2017-09-25T22:31:54.049Z,31.67
2017-09-25T22:34:21.668Z,30.07
2017-09-25T22:36:50.001Z,28.97
2017-09-25T22:39:17.628Z,29.27
2017-09-25T22:41:45.254Z,31.53
2017-09-25T22:44:14.432Z,29.52
2017-09-25T22:46:42.030Z,28.90
2017-09-25T22:49:10.377Z,28.80
2017-09-25T22:51:38.166Z,31.90
2017-09-25T22:54:05.748Z,28.20
2017-09-25T22:56:33.356Z,28.83
2017-09-25T22:59:00.939Z,30.97
2017-09-25T23:01:29.364Z,31.98
2017-09-25T23:06:48.597Z,32.28
2017-09-25T23:09:16.198Z,35.03
2017-09-25T23:11:45.436Z,35.53
2017-09-25T23:14:13.083Z,36.67
2017-09-25T23:16:40.731Z,38.80
2017-09-25T23:19:08.354Z,39.15
2017-09-25T23:21:35.928Z,38.10
2017-09-25T23:24:03.528Z,37.60
2017-09-25T23:26:31.263Z,40.60
2017-09-25T23:28:58.884Z,37.55
2017-09-25T23:31:27.410Z,38.03
2017-09-25T23:33:55.063Z,37.85
2017-09-25T23:36:22.684Z,35.53
2017-09-25T23:38:51.257Z,37.00
2017-09-25T23:41:18.849Z,36.25
2017-09-25T23:43:47.205Z,36.42
2017-09-25T23:46:14.861Z,38.13
2017-09-25T23:48:42.874Z,39.87
2017-09-25T23:51:10.452Z,37.17
2017-09-25T23:53:38.051Z,36.90
2017-09-25T23:56:05.624Z,36.95
2017-09-25T23:58:33.220Z,34.83
